sensor_id;sensor_type;location;lat;lon;timestamp;P1;durP1;ratioP1;P2;durP2;ratioP2
17261;SDS011;9873;52.236;21.002;2023-04-15T00:02:43;10.23;;;7.40;;
17261;SDS011;9873;52.236;21.002;2023-04-15T00:12:46;9.07;;;6.87;;
17261;SDS011;9873;52.236;21.002;2023-04-15T00:22:51;8.90;;;5.13;;
17261;SDS011;9873;52.236;21.002;2023-04-15T00:33:00;9.80;;;8.17;;
17261;SDS011;9873;52.236;21.002;2023-04-15T00:43:10;12.77;;;7.43;;
17261;SDS011;9873;52.236;21.002;2023-04-15T00:53:16;11.23;;;8.13;;
17261;SDS011;9873;52.236;21.002;2023-04-15T01:03:18;11.70;;;8.03;;
17261;SDS011;9873;52.236;21.002;2023-04-15T01:13:22;7.27;;;5.27;;
17261;SDS011;9873;52.236;21.002;2023-04-15T01:23:29;16.27;;;8.50;;
17261;SDS011;9873;52.236;21.002;2023-04-15T01:33:35;11.07;;;9.00;;
17261;SDS011;9873;52.236;21.002;2023-04-15T01:43:56;9.33;;;6.57;;
17261;SDS011;9873;52.236;21.002;2023-04-15T01:54:01;15.23;;;11.07;;
17261;SDS011;9873;52.236;21.002;2023-04-15T02:04:10;12.50;;;9.70;;
17261;SDS011;9873;52.236;21.002;2023-04-15T02:14:18;8.90;;;6.13;;
17261;SDS011;9873;52.236;21.002;2023-04-15T02:24:24;16.47;;;10.90;;
17261;SDS011;9873;52.236;21.002;2023-04-15T02:34:29;18.10;;;12.30;;
17261;SDS011;9873;52.236;21.002;2023-04-15T02:44:35;18.93;;;13.47;;
17261;SDS011;9873;52.236;21.002;2023-04-15T02:54:41;14.23;;;10.87;;
17261;SDS011;9873;52.236;21.002;2023-04-15T03:04:46;17.90;;;10.57;;
17261;SDS011;9873;52.236;21.002;2023-04-15T03:14:49;15.47;;;11.00;;
17261;SDS011;9873;52.236;21.002;2023-04-15T03:24:56;12.77;;;9.83;;
17261;SDS011;9873;52.236;21.002;2023-04-15T03:35:06;17.47;;;13.27;;
17261;SDS011;9873;52.236;21.002;2023-04-15T03:45:15;14.90;;;11.03;;
17261;SDS011;9873;52.236;21.002;2023-04-15T03:55:23;14.77;;;10.07;;
17261;SDS011;9873;52.236;21.002;2023-04-15T04:05:28;14.47;;;11.20;;
17261;SDS011;9873;52.236;21.002;2023-04-15T04:15:34;10.03;;;6.73;;
17261;SDS011;9873;52.236;21.002;2023-04-15T04:25:38;15.53;;;11.50;;
17261;SDS011;9873;52.236;21.002;2023-04-15T04:35:46;8.13;;;6.43;;
17261;SDS011;9873;52.236;21.002;2023-04-15T04:45:52;16.03;;;11.80;;
17261;SDS011;9873;52.236;21.002;2023-04-15T04:55:57;18.33;;;13.27;;
17261;SDS011;9873;52.236;21.002;2023-04-15T05:06:04;17.37;;;13.30;;
17261;SDS011;9873;52.236;21.002;2023-04-15T05:16:10;19.20;;;14.93;;
17261;SDS011;9873;52.236;21.002;2023-04-15T05:26:14;16.83;;;10.07;;
17261;SDS011;9873;52.236;21.002;2023-04-15T05:36:20;19.23;;;13.93;;
17261;SDS011;9873;52.236;21.002;2023-04-15T05:46:28;18.37;;;13.17;;
17261;SDS011;9873;52.236;21.002;2023-04-15T05:56:33;18.90;;;11.97;;
17261;SDS011;9873;52.236;21.002;2023-04-15T06:06:38;17.33;;;11.27;;
17261;SDS011;9873;52.236;21.002;2023-04-15T06:16:44;16.80;;;12.87;;
17261;SDS011;9873;52.236;21.002;2023-04-15T06:26:52;17.50;;;13.87;;
17261;SDS011;9873;52.236;21.002;2023-04-15T06:36:56;12.83;;;9.70;;
17261;SDS011;9873;52.236;21.002;2023-04-15T06:47:04;12.57;;;8.43;;
17261;SDS011;9873;52.236;21.002;2023-04-15T06:57:10;12.43;;;7.73;;
17261;SDS011;9873;52.236;21.002;2023-04-15T07:07:15;9.93;;;7.00;;
17261;SDS011;9873;52.236;21.002;2023-04-15T07:17:21;4.93;;;3.10;;
17261;SDS011;9873;52.236;21.002;2023-04-15T07:27:27;13.40;;;8.80;;
17261;SDS011;9873;52.236;21.002;2023-04-15T07:37:30;13.03;;;9.60;;
17261;SDS011;9873;52.236;21.002;2023-04-15T07:47:34;10.90;;;7.80;;
17261;SDS011;9873;52.236;21.002;2023-04-15T07:57:40;10.80;;;6.17;;
17261;SDS011;9873;52.236;21.002;2023-04-15T08:07:51;12.63;;;9.17;;
17261;SDS011;9873;52.236;21.002;2023-04-15T08:17:57;4.90;;;3.37;;
17261;SDS011;9873;52.236;21.002;2023-04-15T08:28:03;10.20;;;7.50;;
17261;SDS011;9873;52.236;21.002;2023-04-15T08:38:09;8.63;;;6.13;;
17261;SDS011;9873;52.236;21.002;2023-04-15T08:48:18;7.03;;;4.93;;
17261;SDS011;9873;52.236;21.002;2023-04-15T08:58:21;8.57;;;5.43;;
17261;SDS011;9873;52.236;21.002;2023-04-15T09:08:31;5.90;;;4.70;;
17261;SDS011;9873;52.236;21.002;2023-04-15T09:18:41;8.83;;;6.30;;
17261;SDS011;9873;52.236;21.002;2023-04-15T09:28:46;4.23;;;3.53;;
17261;SDS011;9873;52.236;21.002;2023-04-15T09:38:57;3.83;;;2.97;;
17261;SDS011;9873;52.236;21.002;2023-04-15T09:49:08;6.10;;;3.97;;
17261;SDS011;9873;52.236;21.002;2023-04-15T09:59:15;6.57;;;5.57;;
17261;SDS011;9873;52.236;21.002;2023-04-15T10:09:22;8.70;;;5.77;;
17261;SDS011;9873;52.236;21.002;2023-04-15T10:19:25;9.63;;;5.70;;
17261;SDS011;9873;52.236;21.002;2023-04-15T10:29:29;7.87;;;5.87;;
17261;SDS011;9873;52.236;21.002;2023-04-15T10:49:49;3.00;;;2.43;;
17261;SDS011;9873;52.236;21.002;2023-04-15T11:10:01;6.27;;;4.70;;
17261;SDS011;9873;52.236;21.002;2023-04-15T11:20:05;9.60;;;6.57;;
17261;SDS011;9873;52.236;21.002;2023-04-15T11:30:21;7.73;;;4.83;;
17261;SDS011;9873;52.236;21.002;2023-04-15T11:40:31;6.53;;;4.50;;
17261;SDS011;9873;52.236;21.002;2023-04-15T11:50:39;6.43;;;5.13;;
17261;SDS011;9873;52.236;21.002;2023-04-15T12:00:45;8.43;;;6.43;;
17261;SDS011;9873;52.236;21.002;2023-04-15T12:11:05;10.23;;;8.47;;
17261;SDS011;9873;52.236;21.002;2023-04-15T12:21:12;9.13;;;7.50;;
17261;SDS011;9873;52.236;21.002;2023-04-15T12:31:14;7.90;;;7.10;;
17261;SDS011;9873;52.236;21.002;2023-04-15T12:41:19;8.47;;;6.90;;
17261;SDS011;9873;52.236;21.002;2023-04-15T12:51:22;13.57;;;8.30;;
17261;SDS011;9873;52.236;21.002;2023-04-15T13:01:26;12.00;;;5.90;;
17261;SDS011;9873;52.236;21.002;2023-04-15T13:11:32;9.57;;;6.67;;
17261;SDS011;9873;52.236;21.002;2023-04-15T13:21:35;6.65;;;5.07;;
17261;SDS011;9873;52.236;21.002;2023-04-15T13:31:40;6.40;;;3.93;;
17261;SDS011;9873;52.236;21.002;2023-04-15T13:41:44;4.57;;;2.67;;
17261;SDS011;9873;52.236;21.002;2023-04-15T13:51:59;4.00;;;3.00;;
17261;SDS011;9873;52.236;21.002;2023-04-15T14:02:06;2.17;;;1.93;;
17261;SDS011;9873;52.236;21.002;2023-04-15T14:12:13;2.85;;;2.25;;
17261;SDS011;9873;52.236;21.002;2023-04-15T14:22:17;3.43;;;2.23;;
17261;SDS011;9873;52.236;21.002;2023-04-15T14:32:24;2.60;;;1.80;;
17261;SDS011;9873;52.236;21.002;2023-04-15T14:42:31;4.88;;;2.50;;
17261;SDS011;9873;52.236;21.002;2023-04-15T14:52:33;1.47;;;1.00;;
17261;SDS011;9873;52.236;21.002;2023-04-15T15:02:42;2.27;;;1.90;;
17261;SDS011;9873;52.236;21.002;2023-04-15T15:12:49;1.70;;;1.52;;
17261;SDS011;9873;52.236;21.002;2023-04-15T15:22:52;2.90;;;2.15;;
17261;SDS011;9873;52.236;21.002;2023-04-15T15:32:57;2.85;;;1.70;;
17261;SDS011;9873;52.236;21.002;2023-04-15T15:43:00;2.35;;;1.85;;
17261;SDS011;9873;52.236;21.002;2023-04-15T15:53:03;4.82;;;1.23;;
17261;SDS011;9873;52.236;21.002;2023-04-15T16:03:10;2.07;;;1.20;;
17261;SDS011;9873;52.236;21.002;2023-04-15T16:13:12;1.80;;;1.70;;
17261;SDS011;9873;52.236;21.002;2023-04-15T16:23:15;3.15;;;1.50;;
17261;SDS011;9873;52.236;21.002;2023-04-15T16:33:17;2.27;;;1.83;;
17261;SDS011;9873;52.236;21.002;2023-04-15T16:43:22;2.40;;;2.10;;
17261;SDS011;9873;52.236;21.002;2023-04-15T16:53:28;2.67;;;2.20;;
17261;SDS011;9873;52.236;21.002;2023-04-15T17:03:35;5.07;;;2.58;;
17261;SDS011;9873;52.236;21.002;2023-04-15T17:13:41;3.00;;;2.63;;
17261;SDS011;9873;52.236;21.002;2023-04-15T17:23:43;3.50;;;2.60;;
17261;SDS011;9873;52.236;21.002;2023-04-15T17:33:51;1.77;;;1.57;;
17261;SDS011;9873;52.236;21.002;2023-04-15T17:44:10;2.63;;;2.10;;
17261;SDS011;9873;52.236;21.002;2023-04-15T17:54:32;1.67;;;1.40;;
17261;SDS011;9873;52.236;21.002;2023-04-15T18:04:54;2.50;;;1.77;;
17261;SDS011;9873;52.236;21.002;2023-04-15T18:15:17;2.20;;;1.93;;
17261;SDS011;9873;52.236;21.002;2023-04-15T18:25:39;3.35;;;1.90;;
17261;SDS011;9873;52.236;21.002;2023-04-15T18:35:44;2.40;;;1.70;;
17261;SDS011;9873;52.236;21.002;2023-04-15T18:45:53;3.00;;;2.30;;
17261;SDS011;9873;52.236;21.002;2023-04-15T18:55:56;2.27;;;1.93;;
17261;SDS011;9873;52.236;21.002;2023-04-15T19:05:58;3.17;;;2.30;;
17261;SDS011;9873;52.236;21.002;2023-04-15T19:16:01;2.73;;;1.77;;
17261;SDS011;9873;52.236;21.002;2023-04-15T19:26:06;3.57;;;2.97;;
17261;SDS011;9873;52.236;21.002;2023-04-15T19:36:12;4.60;;;2.50;;
17261;SDS011;9873;52.236;21.002;2023-04-15T19:46:20;3.27;;;2.63;;
17261;SDS011;9873;52.236;21.002;2023-04-15T19:56:43;2.80;;;2.23;;
17261;SDS011;9873;52.236;21.002;2023-04-15T20:06:52;4.93;;;2.10;;
17261;SDS011;9873;52.236;21.002;2023-04-15T20:16:54;5.50;;;3.10;;
17261;SDS011;9873;52.236;21.002;2023-04-15T20:26:59;3.10;;;2.43;;
17261;SDS011;9873;52.236;21.002;2023-04-15T20:37:04;3.17;;;2.83;;
17261;SDS011;9873;52.236;21.002;2023-04-15T20:47:07;4.67;;;2.60;;
17261;SDS011;9873;52.236;21.002;2023-04-15T20:57:09;3.03;;;1.60;;
17261;SDS011;9873;52.236;21.002;2023-04-15T21:07:17;4.30;;;3.00;;
17261;SDS011;9873;52.236;21.002;2023-04-15T21:17:22;5.60;;;2.50;;
17261;SDS011;9873;52.236;21.002;2023-04-15T21:27:27;2.63;;;1.80;;
17261;SDS011;9873;52.236;21.002;2023-04-15T21:37:37;4.77;;;3.17;;
17261;SDS011;9873;52.236;21.002;2023-04-15T21:47:44;3.63;;;3.17;;
17261;SDS011;9873;52.236;21.002;2023-04-15T21:58:08;4.57;;;3.57;;
17261;SDS011;9873;52.236;21.002;2023-04-15T22:08:16;3.77;;;2.90;;
17261;SDS011;9873;52.236;21.002;2023-04-15T22:18:19;4.73;;;3.60;;
17261;SDS011;9873;52.236;21.002;2023-04-15T22:28:23;5.90;;;3.97;;
17261;SDS011;9873;52.236;21.002;2023-04-15T22:38:31;4.97;;;3.67;;
17261;SDS011;9873;52.236;21.002;2023-04-15T22:48:34;6.73;;;4.13;;
17261;SDS011;9873;52.236;21.002;2023-04-15T22:58:38;5.73;;;4.47;;
17261;SDS011;9873;52.236;21.002;2023-04-15T23:08:43;5.70;;;4.77;;
17261;SDS011;9873;52.236;21.002;2023-04-15T23:18:48;7.93;;;5.93;;
17261;SDS011;9873;52.236;21.002;2023-04-15T23:28:52;8.97;;;6.10;;
17261;SDS011;9873;52.236;21.002;2023-04-15T23:38:55;9.57;;;6.60;;
17261;SDS011;9873;52.236;21.002;2023-04-15T23:48:59;5.83;;;5.13;;
17261;SDS011;9873;52.236;21.002;2023-04-15T23:59:01;7.37;;;4.10;;
